This demonstration page uses our WeatherBlox Daily Observations layout. Learn more.

Left ArrowRight Arrow

39.08367, -84.50855

Hourly Observations for January 28, 2015

Temp ( °F °C ) Dew Point ( °F °C ) Humidity (%) Winds ( mph kmh ) Pressure ( in mb ) Visibility ( mi km ) Precip ( " mm )
12:53 am 00:53 Clear 16 -8.9 12 -11.1 84 84 Calm 30.3 1026 7 11.26538 0 0
1:53 am 01:53 Clear with Mist and Fog 15 -9.4 12 -11.1 88 88 Calm 30.32 1027 6 9.65604 0 0
2:53 am 02:53 Clear with Mist and Fog 14 -10 11 -11.7 88 88 Calm 30.35 1028 5 8.0467 0 0
3:53 am 03:53 Clear with Mist and Fog 13 -10.6 11 -11.7 92 92 Calm 30.35 1028 4 6.43736 0 0
4:53 am 04:53 Clear with Mist and Fog 13 -10.6 10 -12.2 88 88 Calm 30.36 1028 4 6.43736 0 0
5:53 am 05:53 Clear with Mist and Fog 12 -11.1 10 -12.2 92 92 Calm 30.38 1029 4 6.43736 0 0
6:53 am 06:53 Clear with Mist and Fog 12 -11.1 10 -12.2 92 92 NNE 3 6 30.41 1030 4 6.43736 0 0
7:53 am 07:53 Sunny with Mist and Fog 12 -11.1 9 -12.8 87 87 NNE 6 9 30.42 1030 3 4.82802 0 0
8:53 am 08:53 Sunny with Mist and Fog 16 -8.9 13 -10.6 88 88 NE 6 9 30.42 1030 3 4.82802 0 0
9:53 am 09:53 Sunny with Mist and Fog 19 -7.2 17 -8.3 92 92 Calm 30.45 1031 3 4.82802 0 0
10:53 am 10:53 Hazy 25 -3.9 19 -7.2 78 78 N 6 9 30.44 1031 4 6.43736 0 0
11:53 am 11:53 Sunny 27 -2.8 17 -8.3 66 66 VRB 3 6 30.42 1030 10 16.0934 0 0
12:53 pm 12:53 Sunny 30 -1.1 16 -8.9 56 56 S 7 11 30.4 1029 10 16.0934 0 0
1:53 pm 13:53 Sunny 33 0.6 17 -8.3 52 52 SSE 9 15 30.35 1028 10 16.0934 0 0
2:53 pm 14:53 Sunny 34 1.1 18 -7.8 52 52 S 10 17 30.32 1027 10 16.0934 0 0
3:53 pm 15:53 Sunny 35 1.7 18 -7.8 50 50 SE 9 15 30.3 1026 10 16.0934 0 0
4:53 pm 16:53 Sunny 34 1.1 18 -7.8 52 52 ESE 7 11 30.3 1026 10 16.0934 0 0
5:53 pm 17:53 Sunny 32 0 18 -7.8 56 56 SE 3 6 30.3 1026 10 16.0934 0 0
6:53 pm 18:53 Clear 31 -0.6 18 -7.8 59 59 SE 6 9 30.29 1026 10 16.0934 0 0
7:53 pm 19:53 Clear 31 -0.6 19 -7.2 61 61 SE 3 6 30.29 1026 10 16.0934 0 0
8:53 pm 20:53 Clear 30 -1.1 19 -7.2 64 64 Calm 30.25 1024 10 16.0934 0 0
9:53 pm 21:53 Clear 30 -1.1 20 -6.7 66 66 S 3 6 30.24 1024 10 16.0934 0 0
10:53 pm 22:53 Clear 31 -0.6 19 -7.2 61 61 SE 9 15 30.19 1023 10 16.0934 0 0
11:53 pm 23:53 Clear 31 -0.6 19 -7.2 61 61 Calm 30.17 1022 10 16.0934 0 0

Powered by AerisWeather